Time;durP1;ratioP1;P1;durP2;ratioP2;P2;SDS_P1;SDS_P2;PMS_P1;PMS_P2;Temp;Humidity;BMP_temperature;BMP_pressure;BME280_temperature;BME280_humidity;BME280_pressure;Samples;Min_cycle;Max_cycle;Signal;HPM_P1;HPM_P2
2021/03/26 00:01:52;;;;;;;;;;;7.10;74.70;;;;;;5093171;28;20378;-68
2021/03/26 00:04:18;;;;;;;;;;;7.10;75.60;;;;;;5094133;28;19912;-70
2021/03/26 00:06:46;;;;;;;;;;;7.10;75.00;;;;;;5061898;28;19978;-68
2021/03/26 00:09:14;;;;;;;;;;;7.10;76.70;;;;;;5075811;28;19943;-69
2021/03/26 00:11:40;;;;;;;;;;;7.10;77.20;;;;;;5087275;28;20391;-69
2021/03/26 00:14:05;;;;;;;;;;;7.10;77.20;;;;;;5085232;28;19979;-69
2021/03/26 00:16:31;;;;;;;;;;;7.00;76.70;;;;;;5094224;28;19931;-69
2021/03/26 00:18:57;;;;;;;;;;;7.00;77.10;;;;;;5084966;28;19914;-68
2021/03/26 00:21:26;;;;;;;;;;;7.00;78.00;;;;;;5087380;28;20394;-70
2021/03/26 00:23:52;;;;;;;;;;;7.00;77.80;;;;;;5087763;28;19973;-70
2021/03/26 00:26:17;;;;;;;;;;;7.00;78.40;;;;;;5055872;28;19920;-69
2021/03/26 00:28:43;;;;;;;;;;;7.00;79.20;;;;;;5078738;28;20066;-69
2021/03/26 00:31:08;;;;;;;;;;;7.00;78.80;;;;;;5085300;28;19934;-68
2021/03/26 00:33:34;;;;;;;;;;;7.00;79.50;;;;;;5079618;28;19909;-69
2021/03/26 00:36:00;;;;;;;;;;;7.00;79.40;;;;;;5072918;28;19995;-69
2021/03/26 00:38:26;;;;;;;;;;;6.90;80.00;;;;;;5080082;28;20057;-70
2021/03/26 00:40:52;;;;;;;;;;;6.90;80.50;;;;;;5075692;28;19916;-68
2021/03/26 00:43:18;;;;;;;;;;;6.90;81.10;;;;;;5079703;28;19977;-69
2021/03/26 00:45:44;;;;;;;;;;;6.80;82.10;;;;;;5075629;28;19908;-69
2021/03/26 00:48:10;;;;;;;;;;;6.80;81.60;;;;;;5088721;28;19919;-69
2021/03/26 00:50:40;;;;;;;;;;;6.90;81.40;;;;;;5087526;28;19912;-68
2021/03/26 00:53:11;;;;;;;;;;;6.90;81.10;;;;;;5090812;28;19918;-69
2021/03/26 00:55:37;;;;;;;;;;;6.90;81.80;;;;;;5091294;28;20278;-68
2021/03/26 00:58:03;;;;;;;;;;;6.90;81.60;;;;;;5087065;28;19914;-69
2021/03/26 01:00:29;;;;;;;;;;;6.90;82.30;;;;;;5088545;28;19908;-68
2021/03/26 01:02:55;;;;;;;;;;;6.90;83.30;;;;;;5092583;28;20313;-69
2021/03/26 01:05:23;;;;;;;;;;;6.90;83.00;;;;;;5086280;28;19912;-70
2021/03/26 01:07:49;;;;;;;;;;;6.90;83.10;;;;;;5084376;28;19915;-70
2021/03/26 01:10:16;;;;;;;;;;;6.90;82.30;;;;;;5092550;28;19916;-69
2021/03/26 01:12:42;;;;;;;;;;;6.90;83.00;;;;;;5072771;28;19925;-69
2021/03/26 01:15:09;;;;;;;;;;;6.90;82.20;;;;;;5089813;28;20070;-68
2021/03/26 01:17:34;;;;;;;;;;;6.90;82.80;;;;;;5083396;28;19908;-68
2021/03/26 01:20:00;;;;;;;;;;;6.90;81.80;;;;;;5087303;28;20052;-68
2021/03/26 01:22:26;;;;;;;;;;;6.90;82.20;;;;;;5081660;28;19954;-69
2021/03/26 01:24:51;;;;;;;;;;;6.90;82.90;;;;;;5087161;28;19942;-68
2021/03/26 01:27:17;;;;;;;;;;;6.90;82.60;;;;;;5082997;28;19909;-69
2021/03/26 01:29:43;;;;;;;;;;;6.90;82.20;;;;;;5085193;28;19912;-68
2021/03/26 01:32:09;;;;;;;;;;;6.90;82.30;;;;;;5086540;28;19947;-68
2021/03/26 01:34:34;;;;;;;;;;;6.90;82.30;;;;;;5086814;28;19958;-69
2021/03/26 01:37:00;;;;;;;;;;;6.90;82.30;;;;;;5086825;28;19920;-68
2021/03/26 01:39:25;;;;;;;;;;;6.80;82.70;;;;;;5092495;28;19908;-68
2021/03/26 01:41:51;;;;;;;;;;;6.80;83.10;;;;;;5092929;28;19961;-67
2021/03/26 01:44:19;;;;;;;;;;;6.80;83.10;;;;;;5092404;28;19954;-68
2021/03/26 01:46:46;;;;;;;;;;;6.80;83.00;;;;;;5093253;28;19908;-69
2021/03/26 01:49:12;;;;;;;;;;;6.80;83.60;;;;;;5092914;28;19935;-68
2021/03/26 01:51:39;;;;;;;;;;;6.80;82.90;;;;;;5074517;28;19916;-69
2021/03/26 01:54:05;;;;;;;;;;;6.80;83.40;;;;;;5093133;28;19919;-68
2021/03/26 01:56:32;;;;;;;;;;;6.80;84.90;;;;;;5092582;28;19916;-69
2021/03/26 01:58:57;;;;;;;;;;;6.80;87.30;;;;;;5092718;28;19915;-68
2021/03/26 02:01:24;;;;;;;;;;;6.70;85.50;;;;;;5092943;28;19908;-68
2021/03/26 02:03:52;;;;;;;;;;;6.70;85.50;;;;;;5091401;28;20301;-68
2021/03/26 02:06:19;;;;;;;;;;;6.70;85.60;;;;;;5072888;28;19918;-69
2021/03/26 02:08:45;;;;;;;;;;;6.60;89.70;;;;;;5091354;28;19919;-67
2021/03/26 02:11:29;;;;;;;;;;;6.60;90.90;;;;;;5091625;28;19920;-68
2021/03/26 02:13:55;;;;;;;;;;;6.50;92.70;;;;;;5091349;28;19966;-69
2021/03/26 02:16:22;;;;;;;;;;;6.40;94.40;;;;;;5082405;28;19913;-71
2021/03/26 02:18:48;;;;;;;;;;;6.20;94.80;;;;;;5077774;28;19908;-69
2021/03/26 02:21:28;;;;;;;0.00;0.00;;;6.10;96.30;;;;;;5074868;28;20945;-70
2021/03/26 02:23:55;;;;;;;54.28;30.38;;;5.90;97.70;;;;;;5085980;28;20040;-68
2021/03/26 02:26:32;;;;;;;45.78;29.00;;;5.60;99.90;;;;;;5077478;28;20116;-67
2021/03/26 02:28:59;;;;;;;46.50;29.05;;;5.70;99.80;;;;;;5081300;28;20056;-68
2021/03/26 02:31:26;;;;;;;47.03;29.38;;;5.40;99.90;;;;;;5079614;28;20031;-69
2021/03/26 02:33:53;;;;;;;48.10;29.50;;;5.30;99.90;;;;;;5089387;28;20047;-71
2021/03/26 02:36:20;;;;;;;49.83;29.85;;;5.20;99.90;;;;;;5079436;28;20055;-68
2021/03/26 02:38:53;;;;;;;48.13;29.10;;;5.10;99.90;;;;;;5081975;28;20107;-68
2021/03/26 02:41:27;;;;;;;49.88;29.88;;;5.10;99.90;;;;;;5092406;28;20376;-69
2021/03/26 02:44:22;;;;;;;49.72;29.83;;;5.10;99.90;;;;;;5095822;28;20035;-69
2021/03/26 02:47:25;;;;;;;50.60;30.05;;;4.80;99.90;;;;;;5082954;28;20025;-69
2021/03/26 02:49:54;;;;;;;51.30;30.08;;;4.90;99.90;;;;;;5095376;28;20028;-68
2021/03/26 02:52:50;;;;;;;52.60;30.75;;;4.90;99.90;;;;;;5095722;28;20111;-68
2021/03/26 02:55:36;;;;;;;53.75;31.15;;;5.00;99.90;;;;;;5080536;28;20031;-68
2021/03/26 02:58:05;;;;;;;51.78;29.92;;;5.00;99.90;;;;;;5095115;28;20039;-67
2021/03/26 03:00:43;;;;;;;53.55;30.50;;;4.90;99.90;;;;;;5095693;28;20106;-67
2021/03/26 03:03:11;;;;;;;53.35;30.58;;;4.70;99.90;;;;;;5095171;28;20104;-68
2021/03/26 03:05:43;;;;;;;54.13;31.30;;;4.80;99.90;;;;;;5095229;28;20029;-69
2021/03/26 03:08:20;;;;;;;50.80;29.73;;;4.80;99.90;;;;;;5095256;28;20024;-69
2021/03/26 03:10:56;;;;;;;48.92;29.38;;;4.90;99.90;;;;;;5095841;28;20119;-69
2021/03/26 03:13:36;;;;;;;48.88;29.63;;;5.00;99.90;;;;;;5078602;28;20458;-67
2021/03/26 03:16:14;;;;;;;48.97;29.50;;;5.00;99.90;;;;;;5095624;28;20031;-67
2021/03/26 03:18:46;;;;;;;42.97;26.73;;;4.70;99.90;;;;;;5095652;28;20039;-68
2021/03/26 03:21:33;;;;;;;48.43;29.57;;;4.70;99.90;;;;;;5095068;28;20111;-67
2021/03/26 03:24:08;;;;;;;31.25;19.25;;;4.70;99.90;;;;;;5094968;28;20032;-68
2021/03/26 03:27:03;;;;;;;49.77;30.00;;;4.90;99.90;;;;;;5095325;28;20041;-67
2021/03/26 03:29:31;;;;;;;49.70;29.75;;;5.00;99.90;;;;;;5086373;28;20059;-67
2021/03/26 03:32:06;;;;;;;50.65;30.10;;;4.80;99.90;;;;;;5094741;28;20028;-67
2021/03/26 03:34:38;;;;;;;48.58;29.60;;;4.90;99.90;;;;;;5094966;28;20355;-68
2021/03/26 03:37:19;;;;;;;48.47;29.20;;;5.00;99.90;;;;;;5093290;28;20020;-69
2021/03/26 03:39:44;;;;;;;;;;;5.00;99.90;;;;;;5095249;28;20024;-68
2021/03/26 03:42:15;;;;;;;;;;;5.00;99.90;;;;;;5095198;28;20037;-68
2021/03/26 03:45:01;;;;;;;;;;;5.20;99.90;;;;;;5094737;28;20041;-68
2021/03/26 03:47:39;;;;;;;0.10;0.10;;;5.20;99.90;;;;;;5074957;28;20444;-69
2021/03/26 03:50:14;;;;;;;;;;;5.30;99.90;;;;;;5094709;28;20425;-67
2021/03/26 03:52:39;;;;;;;;;;;5.30;99.90;;;;;;5077002;28;20272;-68
2021/03/26 03:55:05;;;;;;;;;;;5.40;99.90;;;;;;5094683;28;19904;-68
2021/03/26 03:57:40;;;;;;;;;;;5.40;99.90;;;;;;5076513;28;19968;-69
2021/03/26 04:00:09;;;;;;;;;;;5.20;99.90;;;;;;5094791;28;19908;-69
2021/03/26 04:02:42;;;;;;;;;;;5.20;99.90;;;;;;5076612;28;20231;-68
2021/03/26 04:05:16;;;;;;;;;;;5.20;99.90;;;;;;5094107;28;19950;-68
2021/03/26 04:07:47;;;;;;;;;;;5.30;99.90;;;;;;5094740;28;19968;-67
2021/03/26 04:10:14;;;;;;;;;;;5.10;99.90;;;;;;5094296;28;20015;-68
2021/03/26 04:12:41;;;;;;;;;;;5.00;99.90;;;;;;5094074;28;20369;-67
2021/03/26 04:15:10;;;;;;;;;;;4.90;99.90;;;;;;5094943;28;19947;-67
2021/03/26 04:17:55;;;;;;;;;;;4.90;99.90;;;;;;5094385;28;20265;-67
2021/03/26 04:20:23;;;;;;;;;;;4.60;99.90;;;;;;5093432;28;20392;-67
2021/03/26 04:22:52;;;;;;;;;;;4.70;99.90;;;;;;5094012;28;19908;-66
2021/03/26 04:25:25;;;;;;;;;;;4.80;99.90;;;;;;5094061;28;19908;-67
2021/03/26 04:27:55;;;;;;;;;;;4.70;99.90;;;;;;5094455;28;19930;-66
2021/03/26 04:30:47;;;;;;;;;;;4.50;99.90;;;;;;5076007;28;19908;-67
2021/03/26 04:33:12;;;;;;;;;;;4.60;99.90;;;;;;5089119;28;20010;-67
2021/03/26 04:35:38;;;;;;;;;;;4.40;99.90;;;;;;5093897;28;20010;-69
2021/03/26 04:38:10;;;;;;;;;;;4.30;99.90;;;;;;5093987;28;20258;-66
2021/03/26 04:40:55;;;;;;;;;;;4.40;99.90;;;;;;5093901;28;19915;-66
2021/03/26 04:43:44;;;;;;;;;;;4.40;99.90;;;;;;5092603;28;19912;-67
2021/03/26 04:46:23;;;;;;;;;;;4.40;99.90;;;;;;5064608;28;19909;-67
2021/03/26 04:49:07;;;;;;;;;;;4.50;99.90;;;;;;5073828;28;19908;-67
2021/03/26 04:51:37;;;;;;;;;;;4.60;99.90;;;;;;5074453;28;19991;-66
2021/03/26 04:54:15;;;;;;;;;;;4.50;99.90;;;;;;5073572;28;20218;-68
2021/03/26 04:57:01;;;;;;;;;;;4.40;99.90;;;;;;5077510;28;20273;-68
2021/03/26 04:59:35;;;;;;;;;;;4.50;99.90;;;;;;5080833;28;19917;-68
2021/03/26 05:02:02;;;;;;;;;;;4.40;99.90;;;;;;5074049;28;19908;-67
2021/03/26 05:04:32;;;;;;;;;;;3.80;99.90;;;;;;5073816;28;19954;-70
2021/03/26 05:06:59;;;;;;;;;;;3.90;99.90;;;;;;5073523;28;19905;-70
2021/03/26 05:09:31;;;;;;;;;;;4.20;99.90;;;;;;5073987;28;20012;-69
2021/03/26 05:12:06;;;;;;;;;;;3.90;99.90;;;;;;5074213;28;19908;-69
2021/03/26 05:14:34;;;;;;;;;;;4.00;99.90;;;;;;5073184;28;19908;-67
2021/03/26 05:17:05;;;;;;;;;;;4.20;99.90;;;;;;5073932;28;20354;-68
2021/03/26 05:19:39;;;;;;;;;;;4.00;99.90;;;;;;5073279;28;19904;-68
2021/03/26 05:22:23;;;;;;;;;;;3.60;99.90;;;;;;5073812;28;19905;-68
2021/03/26 05:24:54;;;;;;;;;;;3.80;99.90;;;;;;5073530;28;19916;-67
2021/03/26 05:27:20;;;;;;;;;;;4.10;99.90;;;;;;5073451;28;19904;-68
2021/03/26 05:29:47;;;;;;;;;;;4.00;99.90;;;;;;5055285;28;19919;-66
2021/03/26 05:32:19;;;;;;;;;;;4.10;99.90;;;;;;5074105;28;19960;-68
2021/03/26 05:34:50;;;;;;;;;;;4.20;99.90;;;;;;5073685;28;19905;-69
2021/03/26 05:37:20;;;;;;;;;;;4.50;99.90;;;;;;5074309;28;19912;-68
2021/03/26 05:39:48;;;;;;;;;;;4.70;99.90;;;;;;5064417;28;20270;-68
2021/03/26 05:42:14;;;;;;;;;;;4.70;99.90;;;;;;5093233;28;20278;-67
2021/03/26 05:44:39;;;;;;;;;;;5.10;99.90;;;;;;5093295;28;19904;-68
2021/03/26 05:47:24;;;;;;;;;;;5.30;99.90;;;;;;5074881;28;19908;-68
2021/03/26 05:50:08;;;;;;;;;;;5.40;99.90;;;;;;5060920;28;19961;-70
2021/03/26 05:52:48;;;;;;;;;;;5.50;99.90;;;;;;5062865;28;20329;-70
2021/03/26 05:55:14;;;;;;;;;;;5.50;99.90;;;;;;5059491;28;19904;-68
2021/03/26 05:57:39;;;;;;;;;;;5.80;99.90;;;;;;5092351;28;19904;-69
2021/03/26 06:00:29;;;;;;;;;;;6.00;99.90;;;;;;5091547;28;20264;-69
2021/03/26 06:02:57;;;;;;;;;;;6.10;99.90;;;;;;5096072;28;19977;-70
2021/03/26 06:05:27;;;;;;;;;;;6.10;99.90;;;;;;5095413;28;20352;-70
2021/03/26 06:08:04;;;;;;;;;;;6.40;99.90;;;;;;5096568;28;20364;-68
2021/03/26 06:10:44;;;;;;;;;;;6.40;99.90;;;;;;5095239;28;20384;-68
2021/03/26 06:13:28;;;;;;;;;;;6.40;99.90;;;;;;5065080;28;19908;-68
2021/03/26 06:15:54;;;;;;;;;;;6.50;99.90;;;;;;5085103;28;19904;-67
2021/03/26 06:18:25;;;;;;;;;;;6.60;99.90;;;;;;5095630;28;19911;-69
2021/03/26 06:21:02;;;;;;;;;;;6.70;99.90;;;;;;5083538;28;19908;-68
2021/03/26 06:23:47;;;;;;;;;;;6.80;99.90;;;;;;5095572;28;19920;-68
2021/03/26 06:26:31;;;;;;;;;;;6.90;99.90;;;;;;5096653;28;19904;-69
2021/03/26 06:29:19;;;;;;;;;;;7.10;99.90;;;;;;5095805;28;19908;-67
2021/03/26 06:32:00;;;;;;;;;;;7.30;99.90;;;;;;5096118;28;20479;-68
2021/03/26 06:34:26;;;;;;;;;;;7.30;99.90;;;;;;5083341;28;19904;-68
2021/03/26 06:36:57;;;;;;;;;;;7.00;99.90;;;;;;5095928;28;19999;-69
2021/03/26 06:39:29;;;;;;;;;;;7.20;99.90;;;;;;5094778;28;19904;-67
2021/03/26 06:42:08;;;;;;;;;;;7.40;99.90;;;;;;5096249;28;19999;-68
2021/03/26 06:44:51;;;;;;;;;;;7.70;99.90;;;;;;5095807;28;19931;-68
2021/03/26 06:47:41;;;;;;;;;;;7.70;98.00;;;;;;5096754;28;19912;-68
2021/03/26 06:50:25;;;;;;;;;;;7.50;99.90;;;;;;5081963;28;19908;-68
2021/03/26 06:53:06;;;;;;;;;;;7.70;99.10;;;;;;5096123;28;20042;-68
2021/03/26 06:55:36;;;;;;;;;;;7.80;99.90;;;;;;5095941;28;19911;-68
2021/03/26 06:58:04;;;;;;;;;;;8.00;99.90;;;;;;5095511;28;20264;-68
2021/03/26 07:00:48;;;;;;;;;;;8.00;99.90;;;;;;5096016;28;19904;-67
2021/03/26 07:03:36;;;;;;;;;;;8.10;99.90;;;;;;5095780;28;19904;-68
2021/03/26 07:06:20;;;;;;;;;;;8.10;98.30;;;;;;5083426;28;20429;-68
2021/03/26 07:09:04;;;;;;;;;;;8.40;95.60;;;;;;5095101;28;19904;-68
2021/03/26 07:11:53;;;;;;;;;;;8.60;97.40;;;;;;5092603;28;20002;-68
2021/03/26 07:14:19;;;;;;;;;;;8.70;95.60;;;;;;5022667;28;19912;-69
2021/03/26 07:17:03;;;;;;;;;;;8.60;96.70;;;;;;5019131;28;19905;-67
2021/03/26 07:19:37;;;;;;;;;;;8.60;99.90;;;;;;5022973;28;19907;-70
2021/03/26 07:22:21;;;;;;;;;;;8.70;99.90;;;;;;5027329;28;19906;-67
2021/03/26 07:25:07;;;;;;;;;;;8.70;99.10;;;;;;5029444;28;19917;-66
2021/03/26 07:27:53;;;;;;;;;;;8.90;96.80;;;;;;5027625;28;20393;-68
2021/03/26 07:30:28;;;;;;;;;;;9.10;97.00;;;;;;5019124;28;19909;-68
2021/03/26 07:33:01;;;;;;;;;;;9.30;98.40;;;;;;5029827;28;19913;-68
2021/03/26 07:35:30;;;;;;;;;;;9.50;95.40;;;;;;5026937;28;19909;-69
2021/03/26 07:38:07;;;;;;;;;;;9.70;94.80;;;;;;5018269;28;20447;-68
2021/03/26 07:40:37;;;;;;;;;;;9.70;94.20;;;;;;5028680;28;19959;-68
2021/03/26 07:43:04;;;;;;;;;;;;;;;;;;5032767;28;19905;-68
2021/03/26 07:45:54;;;;;;;;;;;9.90;90.70;;;;;;5025446;28;19996;-68
2021/03/26 07:48:20;;;;;;;;;;;9.80;91.30;;;;;;5018579;28;20378;-67
2021/03/26 07:50:45;;;;;;;;;;;10.10;92.60;;;;;;5042608;28;19908;-69
2021/03/26 07:53:20;;;;;;;;;;;10.20;94.40;;;;;;5087113;28;19994;-68
2021/03/26 07:55:46;;;;;;;;;;;10.40;91.20;;;;;;5086696;28;20362;-68
2021/03/26 07:58:26;;;;;;;;;;;10.30;90.10;;;;;;5092003;28;19907;-70
2021/03/26 08:01:02;;;;;;;;;;;10.40;82.30;;;;;;5086491;28;20272;-69
2021/03/26 08:03:30;;;;;;;;;;;10.70;80.10;;;;;;5077476;28;20311;-69
2021/03/26 08:06:05;;;;;;;;;;;10.90;79.30;;;;;;5076408;28;19912;-69
2021/03/26 08:08:39;;;;;;;;;;;11.00;85.00;;;;;;5077328;28;20083;-68
2021/03/26 08:11:17;;;;;;;;;;;11.20;79.40;;;;;;5076027;28;19916;-68
2021/03/26 08:14:08;;;;;;;;;;;11.40;78.10;;;;;;5076865;28;19913;-67
2021/03/26 08:16:33;;;;;;;;;;;11.50;72.90;;;;;;5087368;28;19961;-68
2021/03/26 08:19:18;;;;;;;;;;;11.70;73.10;;;;;;5062218;28;19999;-67
2021/03/26 08:21:55;;;;;;;;;;;12.00;72.10;;;;;;5089087;28;19954;-68
2021/03/26 08:24:23;;;;;;;;;;;;;;;;;;5091824;28;19926;-68
2021/03/26 08:26:49;;;;;;;;;;;;;;;;;;5091562;28;19908;-67
2021/03/26 08:29:17;;;;;;;;;;;12.30;70.80;;;;;;5092954;28;19948;-68
2021/03/26 08:31:51;;;;;;;;;;;12.20;69.00;;;;;;5093188;28;20392;-68
2021/03/26 08:34:23;;;;;;;;;;;12.50;69.20;;;;;;5092210;28;19915;-68
2021/03/26 08:36:59;;;;;;;;;;;12.60;68.60;;;;;;5090278;28;19912;-68
2021/03/26 08:39:28;;;;;;;;;;;12.50;65.50;;;;;;5091886;28;19958;-70
2021/03/26 08:41:58;;;;;;;;;;;12.50;64.40;;;;;;5092595;28;19960;-68
2021/03/26 08:44:24;;;;;;;;;;;12.80;63.60;;;;;;5091685;28;19915;-67
2021/03/26 08:46:51;;;;;;;;;;;12.90;67.40;;;;;;5088848;28;19916;-67
2021/03/26 08:49:24;;;;;;;;;;;12.90;65.20;;;;;;5089456;28;19920;-67
2021/03/26 08:52:12;;;;;;;;;;;13.00;69.60;;;;;;5089415;28;20384;-68
2021/03/26 08:54:56;;;;;;;;;;;13.20;65.50;;;;;;5087926;28;20645;-66
2021/03/26 08:57:26;;;;;;;;;;;13.40;60.80;;;;;;5089576;28;20015;-66
2021/03/26 08:59:54;;;;;;;;;;;13.40;60.10;;;;;;5088582;28;19931;-66
2021/03/26 09:02:22;;;;;;;;;;;13.40;59.10;;;;;;5090758;28;19909;-67
2021/03/26 09:05:06;;;;;;;;;;;13.50;58.50;;;;;;5090858;28;19915;-66
2021/03/26 09:07:47;;;;;;;;;;;13.40;59.20;;;;;;5071140;28;20384;-68
2021/03/26 09:10:31;;;;;;;;;;;13.40;58.60;;;;;;5088220;28;19958;-67
2021/03/26 09:13:13;;;;;;;;;;;13.20;55.50;;;;;;5089939;28;19991;-68
2021/03/26 09:15:44;;;;;;;;;;;13.30;54.10;;;;;;5064801;28;19912;-68
2021/03/26 09:18:28;;;;;;;;;;;13.00;55.20;;;;;;5090729;28;19916;-66
2021/03/26 09:21:02;;;;;;;;;;;13.10;55.00;;;;;;5091542;28;20354;-66
2021/03/26 09:23:48;;;;;;;;;;;12.80;51.50;;;;;;5091193;28;19924;-67
2021/03/26 09:26:19;;;;;;;;;;;13.00;51.90;;;;;;5090191;28;19912;-67
2021/03/26 09:28:51;;;;;;;;;;;13.00;52.40;;;;;;5093006;28;19908;-66
2021/03/26 09:31:29;;;;;;;;;;;13.10;52.00;;;;;;5083805;28;20374;-69
2021/03/26 09:33:59;;;;;;;;;;;13.30;52.20;;;;;;5078258;28;19942;-69
2021/03/26 09:36:27;;;;;;;;;;;13.40;52.30;;;;;;5089493;28;19912;-69
2021/03/26 09:39:13;;;;;;;;;;;13.70;51.60;;;;;;5096798;28;19909;-69
2021/03/26 09:41:49;;;;;;;;;;;13.70;49.80;;;;;;5087672;28;20429;-69
2021/03/26 09:44:20;;;;;;;;;;;13.70;50.20;;;;;;5096539;28;20361;-69
2021/03/26 09:47:04;;;;;;;;;;;13.90;51.10;;;;;;5087339;28;19958;-73
2021/03/26 09:49:30;;;;;;;;;;;14.00;49.60;;;;;;5091030;28;20009;-70
2021/03/26 09:52:11;;;;;;;;;;;14.00;50.80;;;;;;5066252;28;19992;-70
2021/03/26 09:54:38;;;;;;;;;;;13.90;47.60;;;;;;5091023;28;20358;-69
2021/03/26 09:57:22;;;;;;;;;;;14.00;47.70;;;;;;5083552;28;19915;-69
2021/03/26 09:59:51;;;;;;;;;;;13.60;48.00;;;;;;5082906;28;19912;-70
2021/03/26 10:02:18;;;;;;;;;;;13.90;48.80;;;;;;5091314;28;20047;-72
2021/03/26 10:04:51;;;;;;;;;;;14.10;49.30;;;;;;5096783;28;19934;-69
2021/03/26 10:07:32;;;;;;;;;;;13.90;48.80;;;;;;5093355;28;19965;-71
2021/03/26 10:12:50;;;;;;;;;;;13.90;49.10;;;;;;5094351;28;19912;-67
2021/03/26 10:15:33;;;;;;;;;;;14.10;50.30;;;;;;5094565;28;20266;-67
2021/03/26 10:17:59;;;;;;;;;;;14.00;49.40;;;;;;5094088;28;19978;-67
2021/03/26 10:20:24;;;;;;;;;;;13.90;49.50;;;;;;5074760;28;20563;-67
2021/03/26 10:22:51;;;;;;;;;;;13.80;48.70;;;;;;5095962;28;19920;-67
2021/03/26 10:25:23;;;;;;;;;;;14.00;49.50;;;;;;5097059;28;19920;-67
2021/03/26 10:28:09;;;;;;;;;;;14.00;49.50;;;;;;5092003;28;19909;-68
2021/03/26 10:30:40;;;;;;;;;;;14.10;48.80;;;;;;5027282;28;20438;-68
2021/03/26 10:33:07;;;;;;;;;;;14.30;50.80;;;;;;5096398;28;19908;-68
2021/03/26 10:35:33;;;;;;;;;;;14.50;50.10;;;;;;5089758;28;19915;-68
2021/03/26 10:38:03;;;;;;;;;;;14.50;49.00;;;;;;5090255;28;19908;-67
2021/03/26 10:40:39;;;;;;;;;;;14.60;49.30;;;;;;5085313;28;19909;-70
2021/03/26 10:43:31;;;;;;;;;;;14.80;51.70;;;;;;5093850;28;19908;-68
2021/03/26 10:46:11;;;;;;;;;;;14.80;50.90;;;;;;5082477;28;19924;-68
2021/03/26 10:48:45;;;;;;;;;;;14.80;49.50;;;;;;5083351;28;19909;-67
2021/03/26 10:51:17;;;;;;;;;;;14.80;49.80;;;;;;5081380;28;19933;-67
2021/03/26 10:54:03;;;;;;;;;;;14.70;48.70;;;;;;5078690;28;19916;-67
2021/03/26 10:56:48;;;;;;;;;;;14.60;47.80;;;;;;5081513;28;19974;-70
2021/03/26 10:59:20;;;;;;;;;;;14.70;49.10;;;;;;5079036;28;19912;-67
2021/03/26 11:01:48;;;;;;;;;;;14.70;50.70;;;;;;5080556;28;20251;-68
2021/03/26 11:04:25;;;;;;;;;;;14.60;49.00;;;;;;5078580;28;19932;-68
2021/03/26 11:06:53;;;;;;;;;;;14.60;49.50;;;;;;5089663;28;19915;-69
2021/03/26 11:09:28;;;;;;;;;;;14.80;49.10;;;;;;5078384;28;19916;-67
2021/03/26 11:12:03;;;;;;;;;;;15.00;48.60;;;;;;5074879;28;20380;-68
2021/03/26 11:14:38;;;;;;;;;;;15.00;48.70;;;;;;5084952;28;19952;-69
2021/03/26 11:17:15;;;;;;;;;;;14.90;47.80;;;;;;5092250;28;19913;-67
2021/03/26 11:20:00;;;;;;;;;;;14.90;47.40;;;;;;5084479;28;20341;-68
2021/03/26 11:22:29;;;;;;;;;;;14.90;47.60;;;;;;5083806;28;20397;-67
2021/03/26 11:25:01;;;;;;;;;;;15.10;48.10;;;;;;5094816;28;19924;-73
2021/03/26 11:27:34;;;;;;;;;;;15.00;47.80;;;;;;5094463;28;19952;-67
2021/03/26 11:30:24;;;;;;;;;;;15.20;48.10;;;;;;5094826;28;19916;-68
2021/03/26 11:32:55;;;;;;;;;;;15.20;47.70;;;;;;5092929;28;20357;-69
2021/03/26 11:35:22;;;;;;;;;;;15.20;46.80;;;;;;5091061;28;20414;-67
2021/03/26 11:38:01;;;;;;;;;;;15.10;47.20;;;;;;5087732;28;20374;-68
2021/03/26 11:40:30;;;;;;;;;;;14.90;49.20;;;;;;5091097;28;19912;-67
2021/03/26 11:43:05;;;;;;;;;;;14.90;48.60;;;;;;5095049;28;19916;-67
2021/03/26 11:45:49;;;;;;;;;;;15.20;48.00;;;;;;5076716;28;19951;-67
2021/03/26 11:48:33;;;;;;;;;;;15.30;48.90;;;;;;5086720;28;19908;-67
2021/03/26 11:51:08;;;;;;;;;;;15.40;47.80;;;;;;5086539;28;19920;-68
2021/03/26 11:53:42;;;;;;;;;;;15.40;47.30;;;;;;5080263;28;20332;-67
2021/03/26 11:56:08;;;;;;;;;;;15.30;47.10;;;;;;5086038;28;20341;-68
2021/03/26 11:58:51;;;;;;;;;;;15.20;47.30;;;;;;5085283;28;19958;-67
2021/03/26 12:01:19;;;;;;;;;;;15.40;47.90;;;;;;5080502;28;19943;-69
2021/03/26 12:03:57;;;;;;;;;;;15.20;47.70;;;;;;5080635;28;19954;-69
2021/03/26 12:06:34;;;;;;;;;;;14.90;47.30;;;;;;5088312;28;20265;-67
2021/03/26 12:09:03;;;;;;;;;;;15.30;48.10;;;;;;5080597;28;20377;-67
2021/03/26 12:11:35;;;;;;;;;;;15.20;47.20;;;;;;5088534;28;19912;-68
2021/03/26 12:14:28;;;;;;;;;;;15.20;47.50;;;;;;5080528;28;19961;-68
2021/03/26 12:17:03;;;;;;;;;;;15.30;48.10;;;;;;5087650;28;19908;-68
2021/03/26 12:19:31;;;;;;;;;;;15.00;47.60;;;;;;5093565;28;20011;-67
2021/03/26 12:22:05;;;;;;;;;;;15.20;48.90;;;;;;5093524;28;19908;-68
2021/03/26 12:24:52;;;;;;;;;;;15.10;47.80;;;;;;5093588;28;19920;-68
2021/03/26 12:27:18;;;;;;;;;;;15.20;49.00;;;;;;5091069;28;19930;-67
2021/03/26 12:29:49;;;;;;;;;;;15.20;47.70;;;;;;5088252;28;20386;-66
2021/03/26 12:32:21;;;;;;;;;;;15.10;47.50;;;;;;5088824;28;19931;-66
2021/03/26 12:34:46;;;;;;;;;;;14.90;47.10;;;;;;5084127;28;19947;-67
2021/03/26 12:37:15;;;;;;;;;;;14.90;47.20;;;;;;5088874;28;19995;-66
2021/03/26 12:39:48;;;;;;;;;;;15.10;46.50;;;;;;5093266;28;20282;-67
2021/03/26 12:42:13;;;;;;;;;;;15.20;47.10;;;;;;5093256;28;19915;-66
2021/03/26 12:44:42;;;;;;;;;;;15.40;47.10;;;;;;5098736;28;19912;-66
2021/03/26 12:47:26;;;;;;;;;;;15.30;46.90;;;;;;5093589;28;19915;-67
2021/03/26 12:49:51;;;;;;;;;;;15.50;46.40;;;;;;5091056;28;19962;-66
2021/03/26 12:52:32;;;;;;;;;;;15.60;45.60;;;;;;5090404;28;19956;-68
2021/03/26 12:55:13;;;;;;;;;;;15.60;45.70;;;;;;5092650;28;19916;-67
2021/03/26 12:57:45;;;;;;;;;;;15.70;46.20;;;;;;5093364;28;19912;-67
2021/03/26 13:00:31;;;;;;;;;;;15.70;46.30;;;;;;5093583;28;19939;-67
2021/03/26 13:03:00;;;;;;;;;;;16.00;46.30;;;;;;5073056;28;19908;-69
2021/03/26 13:05:28;;;;;;;;;;;16.10;46.00;;;;;;5091227;28;19909;-67
2021/03/26 13:07:53;;;;;;;;;;;15.90;45.60;;;;;;5072672;28;20314;-68
2021/03/26 13:10:19;;;;;;;;;;;16.00;45.60;;;;;;5069559;28;19974;-68
2021/03/26 13:12:46;;;;;;;;;;;15.90;45.00;;;;;;5071873;28;20373;-68
2021/03/26 13:15:12;;;;;;;;;;;15.80;44.80;;;;;;5092281;28;19923;-67
2021/03/26 13:17:38;;;;;;;;;;;15.80;45.50;;;;;;5092604;28;19912;-68
2021/03/26 13:20:05;;;;;;;;;;;15.90;45.30;;;;;;5093165;28;20007;-69
2021/03/26 13:22:46;;;;;;;;;;;16.10;45.30;;;;;;5091972;28;19920;-69
2021/03/26 13:25:14;;;;;;;;;;;16.20;44.90;;;;;;5093618;28;20270;-70
2021/03/26 13:27:44;;;;;;;;;;;16.30;45.10;;;;;;5081606;28;20385;-69
2021/03/26 13:30:10;;;;;;;;;;;16.20;45.00;;;;;;5092558;28;20374;-67
2021/03/26 13:32:56;;;;;;;;;;;16.20;44.90;;;;;;5091357;28;19920;-68
2021/03/26 13:35:24;;;;;;;;;;;16.30;44.80;;;;;;4990813;28;19941;-67
2021/03/26 13:37:55;;;;;;;;;;;16.50;45.00;;;;;;4990262;28;19952;-69
2021/03/26 13:40:22;;;;;;;;;;;16.80;44.70;;;;;;4973832;28;20005;-69
2021/03/26 13:43:28;;;;;;;61.05;35.47;;;17.10;45.00;;;;;;4986933;28;20443;-70
2021/03/26 13:46:06;;;;;;;;;;;17.30;45.00;;;;;;4943420;29;20040;-70
2021/03/26 13:48:44;;;;;;;87.32;42.85;;;17.40;44.30;;;;;;4950799;28;20408;-68
2021/03/26 13:51:11;;;;;;;;;;;17.90;45.30;;;;;;4952965;28;20042;-68
2021/03/26 13:53:43;;;;;;;100.40;45.23;;;17.90;43.80;;;;;;4962516;28;20495;-70
2021/03/26 13:56:17;;;;;;;;;;;18.00;45.40;;;;;;4957956;28;20042;-68
2021/03/26 13:58:48;;;;;;;39.00;29.55;;;17.80;45.10;;;;;;4963432;28;20472;-69
2021/03/26 14:01:28;;;;;;;;;;;18.50;44.50;;;;;;4971920;28;20042;-68
2021/03/26 14:04:05;;;;;;;45.80;31.87;;;17.80;42.90;;;;;;4953645;28;20401;-69
2021/03/26 14:06:55;;;;;;;20.17;18.67;;;18.50;42.60;;;;;;4960660;28;20062;-71
2021/03/26 14:09:22;;;;;;;;;;;19.20;42.30;;;;;;4952163;28;20039;-70
2021/03/26 14:12:06;;;;;;;63.65;37.58;;;19.10;42.50;;;;;;4967738;28;20507;-70
2021/03/26 14:15:14;;;;;;;22.50;20.65;;;18.90;42.60;;;;;;5021356;28;20045;-73
2021/03/26 14:17:46;;;;;;;26.60;23.92;;;19.80;42.20;;;;;;5018979;28;20116;-70
2021/03/26 14:20:36;;;;;;;29.23;26.00;;;19.40;40.50;;;;;;5061028;28;20028;-71
2021/03/26 14:23:21;;;;;;;25.15;22.75;;;19.90;41.40;;;;;;5088188;28;20031;-70
2021/03/26 14:26:05;;;;;;;22.75;20.90;;;20.30;40.20;;;;;;5063782;28;20040;-69
2021/03/26 14:28:49;;;;;;;21.05;19.42;;;20.40;41.00;;;;;;5076542;28;20359;-71
2021/03/26 14:31:57;;;;;;;24.85;22.52;;;21.10;40.60;;;;;;5092361;28;20552;-71
2021/03/26 14:34:32;;;;;;;13.60;12.82;;;22.30;40.10;;;;;;5092439;28;20024;-68
2021/03/26 14:37:10;;;;;;;21.52;19.92;;;22.70;39.10;;;;;;5095470;28;20038;-71
2021/03/26 14:39:38;;;;;;;;;;;22.20;38.10;;;;;;5078742;28;20028;-73
2021/03/26 14:42:13;;;;;;;41.97;31.52;;;23.30;37.10;;;;;;5073787;28;20390;-71
2021/03/26 14:45:06;;;;;;;17.05;16.00;;;22.80;36.50;;;;;;5095322;28;20051;-71
2021/03/26 14:47:37;;;;;;;18.83;17.48;;;23.90;37.50;;;;;;5094812;28;20031;-72